Cenk Y — TCZV7 — position and weather

sailwx.info

Track history (hours):
 
Tides and Currents Weather Stations Pressure Air Temp Water Temp Dewpoint Dewpoint Depression Visibility Wind Speed Wind Dir Waves Ship Positions

Cenk Y

Last reported at 2014-Jul-27 19:09 UTC. Time now 2014-Aug-01 03:47 UTC.
Position N 34°09' E 034°13'.

Length 150 m; draft 3 m.

Type: Ship. MMSI: 271042575.

Date/timePositionNaut miles runAvg speedWind from/ knotsBaromVisibWave heightAir tempDewpointWater temp
2014-Jul-27 19:09N 34°09' E 034°13'1013.0
2014-Jul-27 18:23N 34°01' E 034°05'4013.0
2014-Jul-27 15:21N 33°32' E 033°32'52 1.1
2014-Jul-25 16:13N 34°12' E 034°13'  
2014-Jul-23 10:28N 34°13' E 034°15'2714.1
2014-Jul-23 08:33N 33°50' E 033°58'1414.0
2014-Jul-23 07:31N 33°37' E 033°50'1413.9
2014-Jul-23 06:32N 33°25' E 033°42'1414.0
2014-Jul-23 05:33N 33°13' E 033°34'1414.0
2014-Jul-23 04:33N 33°01' E 033°26'1414.2
2014-Jul-23 03:33N 32°49' E 033°18'1514.5
2014-Jul-23 02:33N 32°36' E 033°10'1414.3
2014-Jul-23 01:33N 32°23' E 033°02'1813.7
2014-Jul-23 00:13N 32°07' E 032°53'1113.7
2014-Jul-22 23:27N 31°57' E 032°47'1213.6
2014-Jul-22 22:33N 31°46' E 032°41'1513.2
2014-Jul-22 21:26N 31°37' E 032°28'1112.3
2014-Jul-22 20:33N 31°27' E 032°22'1212.0
2014-Jul-22 19:33N 31°16' E 032°19'1 1.2
2014-Jul-22 18:33N 31°15' E 032°18'0 0.0
2014-Jul-22 17:33N 31°15' E 032°18'0 0.0
2014-Jul-22 16:33N 31°15' E 032°18'0 0.0
2014-Jul-22 15:12N 31°15' E 032°18'0 0.0
2014-Jul-22 14:24N 31°15' E 032°18'  
Track history (hours):
 
Tides and Currents Weather Stations Pressure Air Temp Water Temp Dewpoint Dewpoint Depression Visibility Wind Speed Wind Dir Waves Ship Positions

Cenk Y

Last reported at 2014-Jul-27 19:09 UTC. Time now 2014-Aug-01 03:47 UTC.
Position N 34°09' E 034°13'.

Length 150 m; draft 3 m.

Type: Ship. MMSI: 271042575.

Date/timePositionNaut miles runAvg speedWind from/ knotsBaromVisibWave heightAir tempDewpointWater temp
2014-Jul-27 19:09N 34°09' E 034°13'1013.0
2014-Jul-27 18:23N 34°01' E 034°05'4013.0
2014-Jul-27 15:21N 33°32' E 033°32'52 1.1
2014-Jul-25 16:13N 34°12' E 034°13'  
2014-Jul-23 10:28N 34°13' E 034°15'2714.1
2014-Jul-23 08:33N 33°50' E 033°58'1414.0
2014-Jul-23 07:31N 33°37' E 033°50'1413.9
2014-Jul-23 06:32N 33°25' E 033°42'1414.0
2014-Jul-23 05:33N 33°13' E 033°34'1414.0
2014-Jul-23 04:33N 33°01' E 033°26'1414.2
2014-Jul-23 03:33N 32°49' E 033°18'1514.5
2014-Jul-23 02:33N 32°36' E 033°10'1414.3
2014-Jul-23 01:33N 32°23' E 033°02'1813.7
2014-Jul-23 00:13N 32°07' E 032°53'1113.7
2014-Jul-22 23:27N 31°57' E 032°47'1213.6
2014-Jul-22 22:33N 31°46' E 032°41'1513.2
2014-Jul-22 21:26N 31°37' E 032°28'1112.3
2014-Jul-22 20:33N 31°27' E 032°22'1212.0
2014-Jul-22 19:33N 31°16' E 032°19'1 1.2
2014-Jul-22 18:33N 31°15' E 032°18'0 0.0
2014-Jul-22 17:33N 31°15' E 032°18'0 0.0
2014-Jul-22 16:33N 31°15' E 032°18'0 0.0
2014-Jul-22 15:12N 31°15' E 032°18'0 0.0
2014-Jul-22 14:24N 31°15' E 032°18'  

Dump ship's entire track history